Search for airport 
image banner adimage banner adimage banner ad
image banner ad

KCAV - Clarion Muni

Located in Clarion, United States

ICAO - CAV, IATA -

Data provided by Airmate  

General information

Coordinates: N42°44'26" W93°45'33"
Elevation is 1157 feet MSL.
Magnetic variation is 03° East
View others Airports in Iowa

Operational data

Special qualification required
Current time UTC:
Current local time:
Weather
METAR: KCAV 150935Z AUTO 00000KT 10SM CLR 16/09 A3011 RMK A01
View NOTAMs / SUP AIP / TFR affecting this airport [VIEW]
Communications frequencies: [VIEW]

Runways:

RWY identifierQFULength (ft)Width (ft)SurfaceLDA (ft)
14146°345560CONC
32326°345560CONC

Airport contact information

Address: Clarion United States

Satellite view of KCAV